Time;durP1;ratioP1;P1;durP2;ratioP2;P2;SDS_P1;SDS_P2;PMS_P1;PMS_P2;Temp;Humidity;BMP_temperature;BMP_pressure;BME280_temperature;BME280_humidity;BME280_pressure;Samples;Min_cycle;Max_cycle;Signal;HPM_P1;HPM_P2
2024/02/06 00:00:54;;;;;;;13.50;6.30;;;9.60;99.90;;;;;;4959086;28;20536;-79
2024/02/06 00:03:20;;;;;;;12.90;6.28;;;9.60;99.90;;;;;;4928376;29;20481;-79
2024/02/06 00:05:46;;;;;;;10.57;6.35;;;9.60;99.90;;;;;;4943783;28;20039;-78
2024/02/06 00:08:13;;;;;;;12.98;7.68;;;9.60;99.90;;;;;;4944607;28;20046;-77
2024/02/06 00:10:40;;;;;;;15.52;8.68;;;9.60;99.90;;;;;;4927553;28;20043;-77
2024/02/06 00:13:06;;;;;;;11.90;8.38;;;9.60;99.90;;;;;;4943831;28;20047;-77
2024/02/06 00:15:32;;;;;;;14.70;7.70;;;9.60;99.90;;;;;;4960018;28;20038;-78
2024/02/06 00:17:59;;;;;;;14.00;8.60;;;9.60;99.90;;;;;;4957954;28;20486;-78
2024/02/06 00:20:25;;;;;;;16.13;8.57;;;9.60;99.90;;;;;;4960300;28;20114;-77
2024/02/06 00:22:51;;;;;;;12.35;9.60;;;9.60;99.90;;;;;;4958118;28;20692;-79
2024/02/06 00:25:18;;;;;;;14.82;9.30;;;9.50;99.90;;;;;;4942681;28;20842;-78
2024/02/06 00:27:44;;;;;;;12.18;7.90;;;9.60;99.90;;;;;;4927859;28;20478;-79
2024/02/06 00:30:11;;;;;;;13.57;8.48;;;9.60;99.90;;;;;;4958941;28;20039;-80
2024/02/06 00:32:38;;;;;;;15.15;9.38;;;9.60;99.90;;;;;;4956902;28;20529;-77
2024/02/06 00:35:04;;;;;;;12.88;9.25;;;9.60;99.90;;;;;;4957873;28;20043;-79
2024/02/06 00:37:32;;;;;;;18.50;10.48;;;9.60;99.90;;;;;;4940397;28;20384;-79
2024/02/06 00:39:59;;;;;;;10.35;8.77;;;9.60;99.90;;;;;;4943172;28;20097;-77
2024/02/06 00:42:25;;;;;;;15.02;9.27;;;9.60;99.90;;;;;;4955836;28;20042;-79
2024/02/06 00:44:52;;;;;;;14.00;8.68;;;9.60;99.90;;;;;;4927042;28;20494;-79
2024/02/06 00:47:19;;;;;;;14.60;9.73;;;9.60;99.90;;;;;;4942231;28;20039;-80
2024/02/06 00:49:45;;;;;;;16.17;9.63;;;9.60;99.90;;;;;;4932556;28;20046;-79
2024/02/06 00:52:12;;;;;;;15.00;10.02;;;9.60;99.90;;;;;;4931354;28;20049;-78
2024/02/06 00:54:38;;;;;;;15.70;9.95;;;9.60;99.90;;;;;;4961491;28;20050;-79
2024/02/06 00:57:05;;;;;;;13.82;9.40;;;9.60;99.90;;;;;;4928711;28;20036;-80
2024/02/06 00:59:31;;;;;;;17.27;11.32;;;9.60;99.90;;;;;;4978113;28;20043;-81
2024/02/06 01:02:01;;;;;;;18.77;11.32;;;9.60;99.90;;;;;;4961969;28;20031;-78
2024/02/06 01:04:27;;;;;;;15.18;8.90;;;9.60;99.90;;;;;;4961351;28;20410;-79
2024/02/06 01:06:53;;;;;;;17.08;10.38;;;9.60;99.90;;;;;;4959849;28;20818;-80
2024/02/06 01:09:20;;;;;;;15.43;10.43;;;9.60;99.90;;;;;;4930059;28;20043;-78
2024/02/06 01:11:46;;;;;;;16.42;10.90;;;9.60;99.90;;;;;;4944715;28;20043;-80
2024/02/06 01:14:13;;;;;;;20.70;12.73;;;9.60;99.90;;;;;;4962865;28;20776;-79
2024/02/06 01:16:39;;;;;;;14.20;11.10;;;9.60;99.90;;;;;;4944650;28;20039;-79
2024/02/06 01:19:06;;;;;;;18.70;11.43;;;9.60;99.90;;;;;;4963031;28;20046;-80
2024/02/06 01:21:32;;;;;;;15.63;11.27;;;9.60;99.90;;;;;;4945507;28;20039;-77
2024/02/06 01:23:59;;;;;;;15.43;10.55;;;9.60;99.90;;;;;;4976942;28;20039;-80
2024/02/06 01:26:25;;;;;;;18.08;12.63;;;9.60;99.90;;;;;;4930927;29;20036;-79
2024/02/06 01:28:51;;;;;;;19.67;11.07;;;9.60;99.90;;;;;;4946544;28;20065;-81
2024/02/06 01:31:17;;;;;;;14.70;10.50;;;9.60;99.90;;;;;;4961777;28;20043;-78
2024/02/06 01:33:44;;;;;;;14.27;10.20;;;9.60;99.90;;;;;;4946943;28;20051;-77
2024/02/06 01:36:11;;;;;;;19.13;11.63;;;9.60;99.90;;;;;;4946976;28;20050;-78
2024/02/06 01:38:37;;;;;;;19.05;10.85;;;9.60;99.90;;;;;;4961909;28;20043;-79
2024/02/06 01:41:03;;;;;;;16.08;9.57;;;9.70;99.90;;;;;;4946385;28;20570;-79
2024/02/06 01:43:30;;;;;;;11.10;8.73;;;9.70;99.90;;;;;;4947631;28;20047;-78
2024/02/06 01:45:56;;;;;;;16.75;9.43;;;9.60;99.90;;;;;;4963249;28;20039;-77
2024/02/06 01:48:23;;;;;;;17.15;10.68;;;9.70;99.90;;;;;;4961842;28;21033;-78
2024/02/06 01:50:50;;;;;;;16.92;9.73;;;9.70;99.90;;;;;;4947477;28;20039;-79
2024/02/06 01:53:17;;;;;;;15.40;10.90;;;9.70;99.90;;;;;;4962406;28;20459;-78
2024/02/06 01:55:44;;;;;;;15.18;8.60;;;9.70;99.90;;;;;;4976857;28;20053;-78
2024/02/06 01:58:11;;;;;;;19.50;10.02;;;9.70;99.90;;;;;;4915566;28;20134;-79
2024/02/06 02:00:39;;;;;;;17.20;10.63;;;9.70;99.90;;;;;;4928879;28;20038;-78
2024/02/06 02:03:08;;;;;;;16.85;10.68;;;9.70;99.90;;;;;;4958306;28;20050;-78
2024/02/06 02:05:35;;;;;;;16.52;8.85;;;9.70;99.90;;;;;;4945086;28;20038;-78
2024/02/06 02:08:02;;;;;;;19.73;9.13;;;9.70;99.90;;;;;;4944187;28;20043;-77
2024/02/06 02:10:28;;;;;;;14.98;8.68;;;9.70;99.90;;;;;;4959527;28;20768;-78
2024/02/06 02:12:54;;;;;;;13.90;7.97;;;9.70;99.90;;;;;;4945986;28;20396;-79
2024/02/06 02:15:21;;;;;;;14.98;8.07;;;9.70;99.90;;;;;;4943707;28;20522;-78
2024/02/06 02:17:51;;;;;;;15.10;7.85;;;9.70;99.90;;;;;;4926585;28;20051;-78
2024/02/06 02:20:18;;;;;;;16.63;9.02;;;9.70;99.90;;;;;;4977284;28;20039;-78
2024/02/06 02:22:44;;;;;;;17.13;9.43;;;9.70;99.90;;;;;;4944767;28;20039;-79
2024/02/06 02:25:10;;;;;;;18.70;9.25;;;9.70;99.90;;;;;;4958730;28;20050;-78
2024/02/06 02:27:37;;;;;;;15.95;8.00;;;9.70;99.90;;;;;;4944568;28;21196;-79
2024/02/06 02:30:05;;;;;;;15.80;7.68;;;9.70;99.90;;;;;;4947747;28;20038;-77
2024/02/06 02:32:33;;;;;;;16.35;7.30;;;9.70;99.90;;;;;;4932220;28;20039;-78
2024/02/06 02:34:59;;;;;;;15.65;7.18;;;9.70;99.90;;;;;;4962906;28;20032;-79
2024/02/06 02:37:26;;;;;;;12.65;6.93;;;9.70;99.90;;;;;;4960474;28;20051;-80
2024/02/06 02:39:52;;;;;;;16.00;7.07;;;9.70;99.90;;;;;;4944596;28;20601;-79
2024/02/06 02:42:19;;;;;;;12.52;6.47;;;9.70;99.90;;;;;;4975848;28;20044;-79
2024/02/06 02:44:45;;;;;;;16.25;6.20;;;9.70;99.90;;;;;;4928677;28;20043;-78
2024/02/06 02:47:12;;;;;;;13.65;5.63;;;9.70;99.90;;;;;;4958534;28;20070;-78
2024/02/06 02:49:38;;;;;;;18.40;7.85;;;9.70;99.90;;;;;;4961216;28;20055;-78
2024/02/06 02:52:04;;;;;;;12.25;5.85;;;9.70;99.90;;;;;;4928393;28;20513;-78
2024/02/06 02:54:31;;;;;;;14.57;6.28;;;9.80;99.90;;;;;;4962407;28;20035;-79
2024/02/06 02:56:57;;;;;;;11.98;5.10;;;9.80;99.90;;;;;;4944483;28;20421;-79
2024/02/06 02:59:24;;;;;;;14.07;5.82;;;9.80;99.90;;;;;;4945430;28;20056;-80
2024/02/06 03:01:50;;;;;;;20.77;6.38;;;9.80;99.90;;;;;;4959736;28;20042;-79
2024/02/06 03:04:17;;;;;;;14.35;5.03;;;9.80;99.90;;;;;;4945146;28;20043;-79
2024/02/06 03:06:44;;;;;;;11.35;5.30;;;9.80;99.90;;;;;;4928379;28;20055;-78
2024/02/06 03:09:14;;;;;;;18.02;5.32;;;9.80;99.90;;;;;;4929706;28;20752;-79
2024/02/06 03:11:41;;;;;;;14.38;5.15;;;9.80;99.90;;;;;;4959997;28;20708;-79
2024/02/06 03:14:07;;;;;;;14.30;5.15;;;9.90;99.90;;;;;;4960144;28;20035;-79
2024/02/06 03:16:34;;;;;;;25.50;5.60;;;9.80;99.90;;;;;;4930057;28;20038;-79
2024/02/06 03:19:00;;;;;;;14.27;4.80;;;9.90;99.90;;;;;;4960266;28;20043;-78
2024/02/06 03:21:26;;;;;;;12.57;5.20;;;9.90;99.90;;;;;;4960720;28;20034;-78
2024/02/06 03:23:53;;;;;;;20.88;6.40;;;9.90;99.90;;;;;;4960873;28;20042;-79
2024/02/06 03:26:19;;;;;;;16.55;4.38;;;9.90;99.90;;;;;;4960214;28;20031;-78
2024/02/06 03:28:46;;;;;;;14.20;4.43;;;9.90;99.90;;;;;;4944281;28;20027;-79
2024/02/06 03:31:12;;;;;;;14.35;4.20;;;9.90;99.90;;;;;;4945865;28;20043;-79
2024/02/06 03:33:38;;;;;;;17.73;5.07;;;9.90;99.90;;;;;;4978372;28;20031;-78
2024/02/06 03:36:05;;;;;;;16.77;5.07;;;9.90;99.90;;;;;;4944514;28;20827;-78
2024/02/06 03:38:31;;;;;;;15.68;5.03;;;9.90;99.90;;;;;;4959620;28;20384;-80
2024/02/06 03:40:58;;;;;;;17.38;4.55;;;9.90;99.90;;;;;;4928914;28;20066;-79
2024/02/06 03:43:24;;;;;;;21.80;5.13;;;9.90;99.90;;;;;;4960894;28;20039;-79
2024/02/06 03:45:51;;;;;;;13.13;4.75;;;10.00;99.90;;;;;;4959279;28;21307;-78
2024/02/06 03:48:17;;;;;;;14.43;4.63;;;10.00;99.90;;;;;;4944426;28;20147;-78
2024/02/06 03:50:43;;;;;;;19.35;6.40;;;10.00;99.90;;;;;;4959133;28;20043;-78
2024/02/06 03:53:10;;;;;;;15.63;4.60;;;10.00;99.90;;;;;;4960241;28;20043;-80
2024/02/06 03:55:37;;;;;;;13.63;5.57;;;10.00;99.90;;;;;;4945130;28;20074;-79
2024/02/06 03:58:03;;;;;;;18.98;6.03;;;9.90;99.90;;;;;;4928215;28;20047;-79
2024/02/06 04:00:30;;;;;;;17.40;5.65;;;9.90;99.90;;;;;;4943172;28;20039;-80
2024/02/06 04:02:57;;;;;;;16.45;7.43;;;9.90;99.90;;;;;;4944516;28;20666;-79
2024/02/06 04:05:24;;;;;;;14.02;6.35;;;9.90;99.90;;;;;;4945244;28;20042;-79
2024/02/06 04:07:50;;;;;;;14.98;7.07;;;9.90;99.90;;;;;;4928117;28;20039;-79
2024/02/06 04:10:17;;;;;;;17.27;7.50;;;9.80;99.90;;;;;;4960611;28;20041;-79
2024/02/06 04:12:44;;;;;;;16.92;8.57;;;9.80;99.90;;;;;;4959384;28;20055;-79
2024/02/06 04:15:10;;;;;;;12.68;7.13;;;9.80;99.90;;;;;;4960292;28;20047;-78
2024/02/06 04:17:36;;;;;;;17.85;8.65;;;9.80;99.90;;;;;;4956978;28;20494;-78
2024/02/06 04:20:03;;;;;;;16.67;9.63;;;9.70;99.90;;;;;;4961593;28;20039;-79
2024/02/06 04:22:30;;;;;;;17.60;8.45;;;9.70;99.90;;;;;;4945241;28;20035;-80
2024/02/06 04:24:56;;;;;;;20.75;8.32;;;9.70;99.90;;;;;;4949558;28;20046;-79
2024/02/06 04:27:23;;;;;;;13.32;7.03;;;9.70;99.90;;;;;;4946669;28;20031;-78
2024/02/06 04:29:49;;;;;;;15.25;8.50;;;9.70;99.90;;;;;;4933907;28;20035;-79
2024/02/06 04:32:17;;;;;;;13.90;8.70;;;9.70;99.90;;;;;;4947679;28;21694;-79
2024/02/06 04:34:43;;;;;;;15.80;8.52;;;9.70;99.90;;;;;;4979537;28;20046;-78
2024/02/06 04:37:09;;;;;;;16.10;7.75;;;9.70;99.90;;;;;;4930364;28;20040;-79
2024/02/06 04:39:36;;;;;;;18.27;8.80;;;9.70;99.90;;;;;;4964859;28;20043;-78
2024/02/06 04:42:02;;;;;;;17.58;8.57;;;9.70;99.90;;;;;;4962511;28;20050;-79
2024/02/06 04:44:28;;;;;;;16.10;8.90;;;9.70;99.90;;;;;;4964800;28;20043;-79
2024/02/06 04:46:55;;;;;;;18.73;8.82;;;9.70;99.90;;;;;;4978854;28;20035;-79
2024/02/06 04:49:21;;;;;;;13.02;9.35;;;9.70;99.90;;;;;;4964785;28;20058;-79
2024/02/06 04:51:48;;;;;;;14.73;8.45;;;9.70;99.90;;;;;;4977881;28;20042;-79
2024/02/06 04:54:14;;;;;;;19.08;9.10;;;9.60;99.90;;;;;;4964490;28;20065;-79
2024/02/06 04:56:41;;;;;;;18.88;8.98;;;9.70;99.90;;;;;;4961981;28;20042;-78
2024/02/06 04:59:07;;;;;;;15.90;8.32;;;9.60;99.90;;;;;;4933832;28;20349;-79
2024/02/06 05:01:34;;;;;;;17.13;7.90;;;9.60;99.90;;;;;;4963412;28;20035;-78
2024/02/06 05:04:00;;;;;;;18.08;8.50;;;9.60;99.90;;;;;;4962693;28;21379;-79
2024/02/06 05:06:26;;;;;;;16.67;8.85;;;9.70;99.90;;;;;;4930459;28;20039;-79
2024/02/06 05:08:53;;;;;;;20.63;9.20;;;9.60;99.90;;;;;;4963259;28;20038;-78
2024/02/06 05:11:19;;;;;;;24.90;9.38;;;9.60;99.90;;;;;;4961860;28;20372;-79
2024/02/06 05:13:45;;;;;;;14.20;7.88;;;9.60;99.90;;;;;;4979838;28;20050;-78
2024/02/06 05:16:12;;;;;;;17.75;8.48;;;9.60;99.90;;;;;;4946725;28;20028;-78
2024/02/06 05:18:38;;;;;;;18.30;7.68;;;9.60;99.90;;;;;;4951308;28;20047;-79
2024/02/06 05:21:04;;;;;;;20.20;8.35;;;9.60;99.90;;;;;;4951380;28;20039;-78
2024/02/06 05:23:31;;;;;;;21.75;9.25;;;9.60;99.90;;;;;;4935749;28;20039;-77
2024/02/06 05:25:57;;;;;;;18.17;9.75;;;9.60;99.90;;;;;;4934071;28;20038;-78
2024/02/06 05:28:23;;;;;;;13.55;8.32;;;9.60;99.90;;;;;;4934080;28;20042;-77
2024/02/06 05:30:50;;;;;;;15.70;7.85;;;9.60;99.90;;;;;;4978717;28;21577;-77
2024/02/06 05:33:16;;;;;;;18.05;8.38;;;9.60;99.90;;;;;;4948405;28;20042;-77
2024/02/06 05:35:43;;;;;;;20.55;8.60;;;9.60;99.90;;;;;;4932103;28;20047;-77
2024/02/06 05:38:09;;;;;;;21.13;8.35;;;9.60;99.90;;;;;;4962138;28;20117;-77
2024/02/06 05:40:36;;;;;;;23.27;10.27;;;9.60;99.90;;;;;;4945220;28;20038;-77
2024/02/06 05:43:02;;;;;;;13.68;8.60;;;9.50;99.90;;;;;;4932037;28;20039;-77
2024/02/06 05:45:29;;;;;;;19.52;8.60;;;9.60;99.90;;;;;;4961874;28;20043;-78
2024/02/06 05:47:59;;;;;;;18.27;9.77;;;9.60;99.90;;;;;;4961127;28;20035;-78
2024/02/06 05:50:27;;;;;;;22.52;10.15;;;9.60;99.90;;;;;;4932008;28;20035;-79
2024/02/06 05:52:54;;;;;;;20.90;9.75;;;9.60;99.90;;;;;;4947063;28;20035;-78
2024/02/06 05:55:20;;;;;;;22.88;9.98;;;9.60;99.90;;;;;;4978220;28;20393;-78
2024/02/06 05:57:47;;;;;;;18.90;10.35;;;9.60;99.90;;;;;;4928328;28;20043;-78
2024/02/06 06:00:14;;;;;;;26.13;11.68;;;9.60;99.90;;;;;;4948836;28;20043;-78
2024/02/06 06:02:40;;;;;;;20.40;10.55;;;9.60;99.90;;;;;;4928518;28;20054;-78
2024/02/06 06:05:07;;;;;;;20.00;9.50;;;9.60;99.90;;;;;;4961468;28;20885;-78
2024/02/06 06:07:33;;;;;;;20.33;10.43;;;9.60;99.90;;;;;;4945911;28;20054;-78
2024/02/06 06:10:00;;;;;;;18.00;10.80;;;9.60;99.90;;;;;;4931472;28;20047;-78
2024/02/06 06:12:26;;;;;;;29.15;11.82;;;9.50;99.90;;;;;;4929690;28;20019;-78
2024/02/06 06:14:52;;;;;;;20.00;10.95;;;9.50;99.90;;;;;;4932273;28;20043;-78
2024/02/06 06:17:21;;;;;;;20.45;10.88;;;9.50;99.90;;;;;;4939572;28;20040;-77
2024/02/06 06:19:47;;;;;;;21.30;10.95;;;9.50;99.90;;;;;;4980399;28;20054;-78
2024/02/06 06:22:14;;;;;;;18.30;11.23;;;9.50;99.90;;;;;;4945763;28;20792;-78
2024/02/06 06:24:40;;;;;;;17.70;10.85;;;9.50;99.90;;;;;;4961854;28;20035;-79
2024/02/06 06:27:06;;;;;;;21.60;12.32;;;9.50;99.90;;;;;;4943203;28;20050;-78
2024/02/06 06:29:32;;;;;;;28.25;12.98;;;9.50;99.90;;;;;;4963239;28;20506;-78
2024/02/06 06:31:59;;;;;;;19.95;11.93;;;9.50;99.90;;;;;;4960156;28;20038;-78
2024/02/06 06:34:25;;;;;;;20.92;11.57;;;9.50;99.90;;;;;;4946507;28;20046;-78
2024/02/06 06:36:51;;;;;;;23.33;11.40;;;9.50;99.90;;;;;;4945404;28;20058;-79
2024/02/06 06:39:18;;;;;;;18.73;11.02;;;9.50;99.90;;;;;;4930461;28;20043;-78
2024/02/06 06:41:47;;;;;;;18.05;10.77;;;9.50;99.90;;;;;;4928180;28;20043;-78
2024/02/06 06:44:13;;;;;;;22.20;11.23;;;9.50;99.90;;;;;;4943561;28;20107;-78
2024/02/06 06:46:39;;;;;;;21.63;11.07;;;9.50;99.90;;;;;;4957985;28;20041;-77
2024/02/06 06:49:06;;;;;;;28.70;13.65;;;9.50;99.90;;;;;;4944523;28;20035;-78
2024/02/06 06:51:32;;;;;;;20.25;11.00;;;9.50;99.90;;;;;;4945499;28;20035;-78
2024/02/06 06:53:58;;;;;;;17.67;10.27;;;9.50;99.90;;;;;;4945056;28;20592;-77
2024/02/06 06:56:25;;;;;;;20.52;10.15;;;9.40;99.90;;;;;;4959134;28;20031;-77
2024/02/06 06:58:52;;;;;;;17.92;11.50;;;9.50;99.90;;;;;;4943497;28;20050;-77
2024/02/06 07:01:18;;;;;;;20.73;10.65;;;9.50;99.90;;;;;;4943330;28;20035;-78
2024/02/06 07:03:45;;;;;;;17.88;9.93;;;9.50;99.90;;;;;;4944054;28;20043;-78
2024/02/06 07:06:11;;;;;;;20.55;10.48;;;9.50;99.90;;;;;;4960527;28;20055;-78
2024/02/06 07:08:38;;;;;;;19.90;10.13;;;9.40;99.90;;;;;;4946772;28;20058;-77
2024/02/06 07:11:05;;;;;;;21.48;9.98;;;9.40;99.90;;;;;;4974501;28;20039;-78
2024/02/06 07:13:31;;;;;;;23.65;10.73;;;9.40;99.90;;;;;;4943801;28;20044;-77
2024/02/06 07:15:57;;;;;;;14.43;8.73;;;9.50;99.90;;;;;;4928810;28;20055;-77
2024/02/06 07:18:24;;;;;;;18.08;8.40;;;9.50;99.90;;;;;;4960142;28;20043;-78
2024/02/06 07:20:50;;;;;;;17.90;10.13;;;9.50;99.90;;;;;;4929096;28;20047;-78
2024/02/06 07:23:17;;;;;;;21.77;8.88;;;9.50;99.90;;;;;;4939144;28;20039;-77
2024/02/06 07:25:44;;;;;;;22.95;8.68;;;9.50;99.90;;;;;;4930807;28;20051;-78
2024/02/06 07:28:11;;;;;;;28.10;9.75;;;9.50;99.90;;;;;;4932757;28;20035;-77
2024/02/06 07:30:37;;;;;;;17.50;8.57;;;9.60;99.90;;;;;;4947076;28;20062;-78
2024/02/06 07:33:04;;;;;;;19.92;8.52;;;9.60;99.90;;;;;;4928344;28;20031;-77
2024/02/06 07:35:30;;;;;;;17.83;9.05;;;9.50;99.90;;;;;;4929345;28;20031;-78
2024/02/06 07:37:57;;;;;;;18.33;8.65;;;9.60;99.90;;;;;;4928794;28;20039;-78
2024/02/06 07:40:23;;;;;;;20.15;8.23;;;9.60;99.90;;;;;;4945543;28;20046;-77
2024/02/06 07:42:52;;;;;;;17.73;7.38;;;9.60;99.90;;;;;;4943859;28;20317;-77
2024/02/06 07:45:19;;;;;;;17.80;7.40;;;9.50;99.90;;;;;;4942940;28;20040;-77
2024/02/06 07:47:47;;;;;;;19.67;7.78;;;9.60;99.90;;;;;;4925621;28;20043;-77
2024/02/06 07:50:14;;;;;;;17.92;7.70;;;9.60;99.90;;;;;;4943564;28;20050;-76
2024/02/06 07:52:42;;;;;;;16.25;7.68;;;9.60;99.90;;;;;;4943342;28;21064;-77
2024/02/06 07:55:09;;;;;;;14.23;7.50;;;9.60;99.90;;;;;;4976074;28;20046;-77
2024/02/06 07:57:35;;;;;;;16.05;7.43;;;9.60;99.90;;;;;;4930771;28;20043;-77
2024/02/06 08:00:04;;;;;;;23.17;8.63;;;9.60;99.90;;;;;;4934201;28;20055;-77
2024/02/06 08:02:33;;;;;;;21.23;9.70;;;9.60;99.90;;;;;;4946543;28;20667;-77
2024/02/06 08:04:59;;;;;;;18.90;9.73;;;9.60;99.90;;;;;;4965757;28;20035;-78
2024/02/06 08:07:27;;;;;;;20.25;9.77;;;9.60;99.90;;;;;;4962894;28;20593;-78
2024/02/06 08:09:54;;;;;;;19.77;10.65;;;9.60;99.90;;;;;;4946466;28;21329;-78
2024/02/06 08:12:21;;;;;;;21.23;10.55;;;9.50;99.90;;;;;;4932432;28;20051;-78
2024/02/06 08:14:47;;;;;;;19.88;9.88;;;9.60;99.90;;;;;;4932876;28;20035;-80
2024/02/06 08:17:13;;;;;;;12.98;8.27;;;9.60;99.90;;;;;;4932226;28;20042;-80
2024/02/06 08:19:40;;;;;;;20.25;9.73;;;9.60;99.90;;;;;;4981385;28;20039;-79
2024/02/06 08:22:06;;;;;;;19.45;8.90;;;9.60;99.90;;;;;;4932086;28;20028;-78
2024/02/06 08:24:33;;;;;;;18.95;8.98;;;9.60;99.90;;;;;;4962846;28;20043;-77
2024/02/06 08:26:59;;;;;;;10.00;7.88;;;9.60;99.90;;;;;;4931429;28;20050;-79
2024/02/06 08:29:26;;;;;;;18.52;8.35;;;9.60;99.90;;;;;;4965492;28;20043;-79
2024/02/06 08:31:52;;;;;;;19.45;9.48;;;9.60;99.90;;;;;;4946650;28;20394;-79
2024/02/06 08:34:19;;;;;;;15.88;8.68;;;9.60;99.90;;;;;;4931481;28;20043;-79
2024/02/06 08:36:45;;;;;;;16.77;7.57;;;9.60;99.90;;;;;;4963176;28;20509;-78
2024/02/06 08:39:11;;;;;;;20.95;8.75;;;9.60;99.90;;;;;;4948185;28;20051;-79
2024/02/06 08:41:38;;;;;;;16.95;7.80;;;9.60;99.90;;;;;;4962882;28;20530;-79
2024/02/06 08:44:08;;;;;;;18.25;8.63;;;9.60;99.90;;;;;;4964035;28;20035;-79
2024/02/06 08:46:35;;;;;;;17.52;7.50;;;9.60;99.90;;;;;;4945165;28;20668;-78
2024/02/06 08:49:01;;;;;;;21.88;10.32;;;9.60;99.90;;;;;;4948325;28;20039;-78
2024/02/06 08:51:28;;;;;;;16.70;8.38;;;9.60;99.90;;;;;;4963291;28;20043;-78
2024/02/06 08:53:55;;;;;;;16.35;8.73;;;9.60;99.90;;;;;;4931285;28;20605;-78
2024/02/06 08:56:21;;;;;;;20.92;8.63;;;9.60;99.90;;;;;;4948039;28;20039;-79
2024/02/06 08:58:47;;;;;;;18.70;9.65;;;9.60;99.90;;;;;;4963478;28;20046;-79
2024/02/06 09:01:14;;;;;;;15.30;7.60;;;9.60;99.90;;;;;;4963975;28;20050;-79
2024/02/06 09:03:40;;;;;;;15.82;7.90;;;9.70;99.90;;;;;;4964398;28;20058;-77
2024/02/06 09:06:07;;;;;;;23.55;8.75;;;9.70;99.90;;;;;;4948339;28;20502;-78
2024/02/06 09:08:33;;;;;;;16.65;8.18;;;9.70;99.90;;;;;;4962078;28;20054;-79
2024/02/06 09:10:59;;;;;;;16.13;7.72;;;9.80;99.90;;;;;;4979747;28;20399;-79
2024/02/06 09:13:26;;;;;;;19.50;7.88;;;9.70;99.90;;;;;;4932963;28;20563;-80
2024/02/06 09:15:53;;;;;;;21.70;9.43;;;9.80;99.90;;;;;;4981767;28;20047;-79
2024/02/06 09:18:20;;;;;;;18.48;7.75;;;9.80;99.90;;;;;;4962506;28;20050;-79
2024/02/06 09:20:46;;;;;;;18.70;6.57;;;9.80;99.90;;;;;;4963279;28;20058;-79
2024/02/06 09:23:13;;;;;;;17.85;6.35;;;9.80;99.90;;;;;;4935458;28;20027;-80
2024/02/06 09:25:42;;;;;;;24.42;7.68;;;9.90;99.90;;;;;;4968633;28;20039;-80
2024/02/06 09:28:09;;;;;;;17.15;7.07;;;9.90;99.90;;;;;;4957716;28;20035;-80
2024/02/06 09:30:38;;;;;;;16.63;6.97;;;9.90;99.90;;;;;;4956206;28;20038;-80
2024/02/06 09:33:05;;;;;;;24.08;6.85;;;10.00;99.90;;;;;;4955340;28;20035;-81
2024/02/06 09:35:32;;;;;;;15.88;5.78;;;10.00;99.90;;;;;;4967473;28;20046;-79
2024/02/06 09:37:59;;;;;;;32.45;6.70;;;10.00;99.90;;;;;;4947386;28;20038;-79
2024/02/06 09:40:26;;;;;;;18.02;6.18;;;10.00;99.90;;;;;;4948996;28;20035;-80
2024/02/06 09:42:53;;;;;;;17.35;6.35;;;10.10;99.90;;;;;;4933328;28;20541;-79
2024/02/06 09:45:20;;;;;;;19.65;5.57;;;10.10;99.90;;;;;;4960169;28;20043;-79
2024/02/06 09:47:46;;;;;;;14.02;4.97;;;10.20;99.90;;;;;;4947054;28;20051;-81
2024/02/06 09:50:12;;;;;;;16.75;5.15;;;10.20;99.90;;;;;;4947859;28;20455;-80
2024/02/06 09:52:41;;;;;;;19.52;5.00;;;10.30;99.90;;;;;;4928166;28;20455;-81
2024/02/06 09:55:14;;;;;;;12.57;3.90;;;10.30;99.90;;;;;;4952497;28;20039;-80
2024/02/06 09:57:42;;;;;;;18.50;4.00;;;10.40;99.90;;;;;;4963811;28;20074;-80
2024/02/06 10:00:10;;;;;;;17.92;3.78;;;10.40;99.90;;;;;;4949293;28;20058;-79
2024/02/06 10:02:42;;;;;;;18.60;3.85;;;10.50;99.90;;;;;;4947400;28;20043;-80
2024/02/06 10:05:17;;;;;;;;;;;10.50;99.90;;;;;;4946599;28;20588;-81
2024/02/06 10:07:48;;;;;;;14.32;3.25;;;10.60;99.90;;;;;;4960145;28;19915;-81
2024/02/06 10:10:18;;;;;;;11.98;2.80;;;10.60;99.90;;;;;;4962295;28;20039;-81
2024/02/06 10:12:44;;;;;;;14.60;2.85;;;10.70;99.90;;;;;;4943078;28;21051;-81
2024/02/06 10:15:18;;;;;;;12.80;3.05;;;10.80;99.90;;;;;;4931945;28;20050;-81
2024/02/06 10:17:45;;;;;;;12.13;2.97;;;10.80;99.90;;;;;;4961154;28;20058;-82
2024/02/06 10:20:12;;;;;;;14.38;2.55;;;10.80;99.90;;;;;;4931828;28;20046;-81
2024/02/06 10:22:40;;;;;;;12.75;2.45;;;10.90;99.90;;;;;;4961631;28;20380;-80
2024/02/06 10:25:08;;;;;;;14.70;3.58;;;10.90;99.90;;;;;;4915317;28;20046;-81
2024/02/06 10:27:34;;;;;;;13.25;3.95;;;11.00;99.90;;;;;;4927555;28;20059;-79
2024/02/06 10:30:02;;;;;;;16.75;3.58;;;11.10;99.90;;;;;;4961475;28;20046;-81
2024/02/06 10:32:34;;;;;;;13.70;5.03;;;11.10;99.90;;;;;;4959211;28;20035;-85
2024/02/06 10:35:05;;;;;;;15.70;4.85;;;11.20;99.90;;;;;;4976419;28;20031;-80
2024/02/06 10:37:36;;;;;;;12.05;3.85;;;11.20;99.90;;;;;;4976168;28;20505;-81
2024/02/06 10:40:11;;;;;;;16.30;4.47;;;11.30;99.90;;;;;;4962293;28;21022;-79
2024/02/06 10:42:39;;;;;;;15.35;4.80;;;11.30;99.90;;;;;;4931612;28;20031;-81
2024/02/06 10:45:08;;;;;;;14.32;4.50;;;11.40;99.90;;;;;;4963051;28;20050;-80
2024/02/06 10:47:34;;;;;;;16.98;5.07;;;11.40;99.90;;;;;;4929027;28;20773;-82
2024/02/06 10:50:04;;;;;;;14.80;5.05;;;11.50;99.90;;;;;;4961651;28;20039;-81
2024/02/06 10:52:31;;;;;;;15.02;5.68;;;11.50;99.90;;;;;;4945659;28;20389;-80
2024/02/06 10:54:58;;;;;;;16.92;5.60;;;11.60;99.90;;;;;;4960324;28;20442;-81
2024/02/06 10:57:26;;;;;;;17.42;4.63;;;11.60;99.90;;;;;;4941448;28;20047;-81
2024/02/06 11:00:15;;;;;;;17.25;4.03;;;11.60;99.90;;;;;;4960479;28;20043;-83
2024/02/06 11:02:46;;;;;;;11.45;3.80;;;11.70;99.90;;;;;;4944265;28;20443;-82
2024/02/06 11:05:27;;;;;;;15.70;3.83;;;11.70;99.90;;;;;;4929233;28;20043;-81
2024/02/06 11:08:00;;;;;;;15.50;3.47;;;11.70;99.90;;;;;;4961350;28;20479;-80
2024/02/06 11:10:55;;;;;;;10.70;2.85;;;11.80;99.90;;;;;;4962643;28;20036;-79
2024/02/06 11:13:27;;;;;;;16.98;4.50;;;11.80;99.90;;;;;;4945241;28;20042;-81
2024/02/06 11:15:55;;;;;;;15.48;3.75;;;11.90;99.90;;;;;;4959669;28;20035;-80
2024/02/06 11:18:26;;;;;;;12.65;3.33;;;11.90;99.90;;;;;;4961646;28;20031;-79
2024/02/06 11:20:57;;;;;;;17.50;3.65;;;11.90;99.90;;;;;;4930009;28;20042;-82
2024/02/06 11:23:25;;;;;;;17.17;3.05;;;11.90;99.90;;;;;;4960427;28;20046;-80
2024/02/06 11:25:53;;;;;;;14.20;3.25;;;11.90;99.90;;;;;;4944982;28;20371;-80
2024/02/06 11:28:20;;;;;;;19.95;4.28;;;11.90;99.90;;;;;;4930716;28;20807;-80
2024/02/06 11:30:47;;;;;;;9.25;2.65;;;11.90;99.90;;;;;;4961835;28;20519;-82
2024/02/06 11:33:14;;;;;;;16.83;4.10;;;11.90;99.90;;;;;;4928657;28;20039;-82
2024/02/06 11:35:41;;;;;;;12.35;2.85;;;11.90;99.90;;;;;;4945850;28;20508;-81
2024/02/06 11:38:08;;;;;;;12.43;2.83;;;11.90;99.90;;;;;;4925141;28;20039;-82
2024/02/06 11:40:34;;;;;;;18.83;3.58;;;11.90;99.90;;;;;;4960384;28;20066;-83
2024/02/06 11:43:06;;;;;;;11.13;2.85;;;11.90;99.90;;;;;;4945818;28;20046;-80
2024/02/06 11:45:37;;;;;;;;;;;11.90;99.90;;;;;;4960776;28;20107;-83
2024/02/06 11:48:06;;;;;;;11.02;2.17;;;11.80;99.90;;;;;;4960299;28;19921;-80
2024/02/06 11:50:39;;;;;;;15.80;2.95;;;11.80;99.90;;;;;;4944629;28;20394;-80
2024/02/06 11:53:13;;;;;;;12.98;2.65;;;11.80;99.90;;;;;;4960296;28;20035;-81
2024/02/06 11:55:41;;;;;;;16.95;3.53;;;11.80;99.90;;;;;;4932380;28;20042;-83
2024/02/06 11:58:08;;;;;;;14.95;2.42;;;11.70;99.90;;;;;;4929383;28;20050;-86
2024/02/06 12:00:35;;;;;;;15.45;2.22;;;11.80;99.90;;;;;;4946274;28;20043;-82
2024/02/06 12:03:03;;;;;;;12.00;2.13;;;11.80;99.90;;;;;;4960845;28;20043;-82
2024/02/06 12:05:40;;;;;;;12.68;2.28;;;11.80;99.90;;;;;;4944306;28;20035;-81
2024/02/06 12:08:07;;;;;;;11.10;2.28;;;11.80;99.90;;;;;;4912793;28;20050;-82
2024/02/06 12:10:35;;;;;;;9.05;1.75;;;11.80;99.90;;;;;;4931095;28;20035;-81
2024/02/06 12:13:07;;;;;;;9.30;1.75;;;11.80;99.90;;;;;;4929318;28;20039;-82
2024/02/06 12:15:35;;;;;;;14.48;1.90;;;11.80;99.90;;;;;;4977080;28;20042;-82
2024/02/06 12:18:06;;;;;;;11.05;2.42;;;11.80;99.90;;;;;;4943570;28;20042;-80
2024/02/06 12:20:35;;;;;;;8.85;2.50;;;11.80;99.90;;;;;;4927915;28;20044;-80
2024/02/06 12:23:04;;;;;;;10.75;2.20;;;11.90;99.90;;;;;;4928598;28;20578;-82
2024/02/06 12:25:33;;;;;;;8.07;1.75;;;11.90;99.90;;;;;;4960246;28;20046;-83
2024/02/06 12:28:04;;;;;;;8.30;1.27;;;11.90;99.90;;;;;;4959548;28;20550;-82
2024/02/06 12:30:31;;;;;;;10.85;1.90;;;11.90;99.90;;;;;;4943964;28;20418;-82
2024/02/06 12:32:59;;;;;;;9.90;1.63;;;11.90;99.90;;;;;;4937026;28;20047;-81
2024/02/06 12:35:26;;;;;;;13.25;2.03;;;11.90;99.90;;;;;;4945359;28;20034;-81
2024/02/06 12:37:57;;;;;;;10.57;1.77;;;11.90;99.90;;;;;;4944803;28;20043;-81
2024/02/06 12:40:30;;;;;;;9.18;1.77;;;11.80;99.90;;;;;;4940151;28;20047;-82
2024/02/06 12:42:59;;;;;;;9.68;2.22;;;11.90;99.90;;;;;;4922467;28;21126;-83